Time;durP1;ratioP1;P1;durP2;ratioP2;P2;SDS_P1;SDS_P2;PMS_P1;PMS_P2;Temp;Humidity;BMP_temperature;BMP_pressure;BME280_temperature;BME280_humidity;BME280_pressure;Samples;Min_cycle;Max_cycle;Signal;HPM_P1;HPM_P2
2024/01/28 00:00:13;;;;;;;23.45;16.27;;;;;21.40;102172.00;;;;2069102;28;20241;-57
2024/01/28 00:01:14;;;;;;;21.75;15.70;;;;;21.40;102171.00;;;;2065947;28;20246;-57
2024/01/28 00:02:17;;;;;;;22.13;14.43;;;;;21.40;102180.00;;;;2069029;28;21150;-55
2024/01/28 00:03:19;;;;;;;20.20;14.20;;;;;21.40;102178.00;;;;2069147;28;20710;-57
2024/01/28 00:04:20;;;;;;;19.75;14.10;;;;;21.40;102172.00;;;;2057446;28;20214;-54
2024/01/28 00:05:20;;;;;;;19.47;13.67;;;;;21.30;102177.00;;;;2064768;28;20730;-55
2024/01/28 00:06:21;;;;;;;20.77;14.77;;;;;21.30;102174.00;;;;2062583;28;20694;-57
2024/01/28 00:07:21;;;;;;;22.30;15.50;;;;;21.30;102178.00;;;;2066276;28;20210;-57
2024/01/28 00:08:25;;;;;;;18.63;13.83;;;;;21.30;102184.00;;;;2065240;28;20219;-58
2024/01/28 00:09:26;;;;;;;20.88;15.38;;;;;21.30;102180.00;;;;2053732;28;20243;-55
2024/01/28 00:10:26;;;;;;;22.77;14.50;;;;;21.30;102196.00;;;;2068660;28;20218;-54
2024/01/28 00:11:26;;;;;;;19.93;13.97;;;;;21.30;102180.00;;;;2064865;28;20642;-54
2024/01/28 00:12:27;;;;;;;24.77;14.70;;;;;21.30;102187.00;;;;2063856;28;20792;-56
2024/01/28 00:13:28;;;;;;;23.53;14.67;;;;;21.30;102181.00;;;;2065088;28;20638;-57
2024/01/28 00:14:28;;;;;;;20.67;14.77;;;;;21.30;102175.00;;;;2058658;28;20293;-54
2024/01/28 00:15:29;;;;;;;20.03;13.07;;;;;21.30;102177.00;;;;2070675;28;20277;-56
2024/01/28 00:16:29;;;;;;;21.87;13.47;;;;;21.30;102176.00;;;;2069660;28;20237;-56
2024/01/28 00:17:29;;;;;;;19.40;13.20;;;;;21.30;102173.00;;;;2070860;28;20234;-57
2024/01/28 00:18:30;;;;;;;19.20;13.90;;;;;21.30;102174.00;;;;2070412;28;20223;-56
2024/01/28 00:19:30;;;;;;;18.00;12.87;;;;;21.30;102182.00;;;;2056308;28;20210;-57
2024/01/28 00:20:30;;;;;;;16.93;11.80;;;;;21.30;102172.00;;;;2065814;28;20219;-57
2024/01/28 00:21:31;;;;;;;18.17;11.60;;;;;21.20;102176.00;;;;2067179;28;20245;-54
2024/01/28 00:22:31;;;;;;;17.43;12.90;;;;;21.20;102176.00;;;;2070358;28;20222;-55
2024/01/28 00:23:32;;;;;;;17.73;11.90;;;;;21.20;102169.00;;;;2065279;28;20222;-58
2024/01/28 00:24:32;;;;;;;16.83;11.83;;;;;21.20;102166.00;;;;2077272;28;20224;-57
2024/01/28 00:25:32;;;;;;;16.77;12.67;;;;;21.30;102165.00;;;;2081147;28;20213;-56
2024/01/28 00:26:39;;;;;;;18.33;12.97;;;;;21.20;102161.00;;;;2064878;28;20218;-53
2024/01/28 00:27:40;;;;;;;17.63;11.52;;;;;21.20;102164.00;;;;2065767;28;20221;-57
2024/01/28 00:28:40;;;;;;;19.10;12.10;;;;;21.20;102155.00;;;;2058847;28;20589;-57
2024/01/28 00:29:40;;;;;;;16.70;11.87;;;;;21.20;102164.00;;;;2070084;28;20614;-57
2024/01/28 00:30:41;;;;;;;18.13;11.90;;;;;21.20;102153.00;;;;2069829;28;21177;-57
2024/01/28 00:31:41;;;;;;;19.43;12.50;;;;;21.20;102180.00;;;;2073811;28;21205;-57
2024/01/28 00:32:42;;;;;;;18.27;12.30;;;;;21.20;102153.00;;;;2065449;28;20671;-53
2024/01/28 00:33:42;;;;;;;15.20;11.77;;;;;21.20;102150.00;;;;2052667;28;20815;-53
2024/01/28 00:34:42;;;;;;;15.53;10.80;;;;;21.20;102148.00;;;;2067067;28;20217;-56
2024/01/28 00:35:43;;;;;;;17.17;12.43;;;;;21.20;102143.00;;;;2068582;28;20214;-57
2024/01/28 00:36:43;;;;;;;17.03;11.43;;;;;21.20;102140.00;;;;2070006;28;20264;-57
2024/01/28 00:37:43;;;;;;;14.63;10.73;;;;;21.20;102143.00;;;;2068130;28;20210;-53
2024/01/28 00:38:44;;;;;;;15.20;10.70;;;;;21.20;102139.00;;;;2058435;28;20253;-54
2024/01/28 00:39:44;;;;;;;14.03;10.60;;;;;21.20;102139.00;;;;2070174;28;20210;-57
2024/01/28 00:40:45;;;;;;;15.23;10.67;;;;;21.20;102145.00;;;;2062913;28;20219;-56
2024/01/28 00:41:45;;;;;;;16.93;10.23;;;;;21.10;102137.00;;;;2068680;28;20217;-57
2024/01/28 00:42:46;;;;;;;14.57;10.70;;;;;21.20;102134.00;;;;2068891;28;20317;-57
2024/01/28 00:43:46;;;;;;;15.37;10.63;;;;;21.20;102139.00;;;;2060884;28;20614;-53
2024/01/28 00:44:46;;;;;;;15.43;10.73;;;;;21.20;102128.00;;;;2065628;28;20206;-55
2024/01/28 00:45:47;;;;;;;15.40;10.33;;;;;21.20;102136.00;;;;2062061;28;20284;-56
2024/01/28 00:46:47;;;;;;;16.67;10.90;;;;;21.20;102122.00;;;;2066170;28;20221;-57
2024/01/28 00:47:47;;;;;;;16.17;10.20;;;;;21.20;102135.00;;;;2066613;28;20238;-58
2024/01/28 00:48:48;;;;;;;13.63;9.67;;;;;21.20;102128.00;;;;2060280;28;20228;-58
2024/01/28 00:49:49;;;;;;;15.40;10.53;;;;;21.10;102119.00;;;;2068465;28;20210;-53
2024/01/28 00:50:49;;;;;;;14.23;10.20;;;;;21.10;102125.00;;;;2060385;28;20215;-57
2024/01/28 00:51:49;;;;;;;15.93;10.13;;;;;21.10;102118.00;;;;2068373;28;20212;-57
2024/01/28 00:52:50;;;;;;;15.13;10.37;;;;;21.10;102128.00;;;;2069954;28;20631;-57
2024/01/28 00:53:50;;;;;;;13.80;8.70;;;;;21.10;102126.00;;;;2060746;28;20564;-57
2024/01/28 00:54:50;;;;;;;13.07;8.80;;;;;21.10;102133.00;;;;2068164;28;20261;-54
2024/01/28 00:55:51;;;;;;;13.70;10.00;;;;;21.10;102126.00;;;;2068633;28;20233;-55
2024/01/28 00:56:54;;;;;;;14.57;9.80;;;;;21.10;102134.00;;;;2068526;28;20218;-56
2024/01/28 00:57:54;;;;;;;16.58;10.38;;;;;21.10;102195.00;;;;2070496;28;20221;-54
2024/01/28 00:58:55;;;;;;;13.37;9.03;;;;;21.10;102129.00;;;;2062362;28;21185;-54
2024/01/28 00:59:55;;;;;;;11.80;8.43;;;;;21.10;102126.00;;;;2077478;28;20212;-56
2024/01/28 01:00:56;;;;;;;14.27;9.03;;;;;21.10;102133.00;;;;2071850;28;20578;-54
2024/01/28 01:01:56;;;;;;;12.48;8.63;;;;;21.10;102135.00;;;;2069454;28;20630;-57
2024/01/28 01:02:57;;;;;;;13.50;8.70;;;;;21.10;102128.00;;;;2078185;28;20222;-54
2024/01/28 01:03:58;;;;;;;15.37;9.20;;;;;21.10;102132.00;;;;2060163;28;20226;-54
2024/01/28 01:04:58;;;;;;;11.90;8.40;;;;;21.10;102136.00;;;;2066591;28;20225;-57
2024/01/28 01:05:58;;;;;;;14.33;9.23;;;;;21.10;102127.00;;;;2069301;28;20465;-53
2024/01/28 01:06:59;;;;;;;14.53;9.87;;;;;21.10;102125.00;;;;2068712;28;20214;-54
2024/01/28 01:07:59;;;;;;;12.60;8.60;;;;;21.10;102129.00;;;;2070319;28;20211;-53
2024/01/28 01:09:00;;;;;;;12.10;8.80;;;;;21.10;102126.00;;;;2060204;28;20222;-53
2024/01/28 01:10:00;;;;;;;11.20;8.43;;;;;21.10;102126.00;;;;2068611;28;20257;-56
2024/01/28 01:11:05;;;;;;;10.50;8.10;;;;;21.10;102133.00;;;;2069862;28;20298;-55
2024/01/28 01:12:06;;;;;;;14.05;8.95;;;;;21.10;102130.00;;;;2069548;28;20236;-53
2024/01/28 01:13:06;;;;;;;12.10;8.80;;;;;21.10;102127.00;;;;2070172;28;20261;-57
2024/01/28 01:14:07;;;;;;;13.77;8.90;;;;;21.10;102136.00;;;;2059434;28;20450;-55
2024/01/28 01:15:07;;;;;;;13.07;8.53;;;;;21.00;102140.00;;;;2060305;28;20261;-54
2024/01/28 01:16:08;;;;;;;13.00;8.57;;;;;21.10;102134.00;;;;2061862;28;20265;-54
2024/01/28 01:17:08;;;;;;;10.30;7.73;;;;;21.00;102129.00;;;;2067043;28;20287;-57
2024/01/28 01:18:09;;;;;;;14.37;7.20;;;;;21.10;102129.00;;;;2063438;28;20223;-55
2024/01/28 01:19:09;;;;;;;12.27;8.37;;;;;21.00;102125.00;;;;2057183;28;20222;-56
2024/01/28 01:20:10;;;;;;;14.50;8.47;;;;;21.00;102126.00;;;;2068075;28;20217;-55
2024/01/28 01:21:10;;;;;;;12.38;7.93;;;;;21.00;102122.00;;;;2062352;28;20222;-57
2024/01/28 01:22:11;;;;;;;11.33;7.70;;;;;21.00;102132.00;;;;2069941;28;20214;-57
2024/01/28 01:23:11;;;;;;;10.87;7.03;;;;;21.00;102121.00;;;;2070041;28;20221;-56
2024/01/28 01:24:11;;;;;;;11.27;8.07;;;;;21.00;102117.00;;;;2057775;28;20222;-57
2024/01/28 01:25:12;;;;;;;9.10;7.50;;;;;21.00;102122.00;;;;2068719;28;20287;-57
2024/01/28 01:26:13;;;;;;;12.17;7.50;;;;;21.00;102110.00;;;;2067379;28;20213;-56
2024/01/28 01:27:13;;;;;;;10.70;7.13;;;;;21.00;102116.00;;;;2063721;28;20587;-57
2024/01/28 01:28:13;;;;;;;10.83;7.40;;;;;21.00;102114.00;;;;2069258;28;20381;-56
2024/01/28 01:29:14;;;;;;;12.30;7.40;;;;;21.00;102115.00;;;;2059711;28;20291;-57
2024/01/28 01:30:14;;;;;;;8.23;6.73;;;;;21.00;102113.00;;;;2069949;28;20228;-57
2024/01/28 01:31:16;;;;;;;10.40;7.27;;;;;21.00;102104.00;;;;2069155;28;20226;-56
2024/01/28 01:32:16;;;;;;;10.05;7.18;;;;;21.00;102087.00;;;;2070060;28;20222;-57
2024/01/28 01:33:16;;;;;;;10.97;7.63;;;;;21.00;102107.00;;;;2066618;28;20225;-53
2024/01/28 01:34:17;;;;;;;10.00;6.20;;;;;21.00;102101.00;;;;2056960;28;20214;-55
2024/01/28 01:35:18;;;;;;;9.00;6.53;;;;;21.00;102104.00;;;;2069018;28;20678;-57
2024/01/28 01:36:19;;;;;;;10.17;7.03;;;;;21.00;102103.00;;;;2068030;28;20461;-58
2024/01/28 01:37:19;;;;;;;10.55;7.03;;;;;21.00;102099.00;;;;2067273;28;20268;-57
2024/01/28 01:38:20;;;;;;;9.47;6.70;;;;;21.00;102107.00;;;;2065493;28;20211;-57
2024/01/28 01:39:20;;;;;;;10.83;6.77;;;;;21.00;102106.00;;;;2053863;28;20245;-57
2024/01/28 01:40:21;;;;;;;10.73;6.70;;;;;21.00;102101.00;;;;2079326;28;20645;-56
2024/01/28 01:41:23;;;;;;;11.10;7.00;;;;;20.90;102103.00;;;;2073389;28;20206;-55
2024/01/28 01:42:23;;;;;;;8.73;5.85;;;;;20.90;102100.00;;;;2062151;28;20219;-53
2024/01/28 01:43:24;;;;;;;10.13;6.00;;;;;20.90;102102.00;;;;2066923;28;20611;-56
2024/01/28 01:44:24;;;;;;;8.30;6.30;;;;;20.90;102100.00;;;;2051741;28;20215;-57
2024/01/28 01:45:25;;;;;;;9.00;5.77;;;;;20.90;102106.00;;;;2068458;28;20210;-56
2024/01/28 01:46:25;;;;;;;9.13;6.30;;;;;20.90;102100.00;;;;2065417;28;20210;-54
2024/01/28 01:47:26;;;;;;;9.73;6.60;;;;;20.40;102099.00;;;;2064606;28;20214;-55
2024/01/28 01:48:27;;;;;;;10.30;6.30;;;;;20.90;102102.00;;;;2064654;28;20321;-56
2024/01/28 01:49:27;;;;;;;9.67;6.10;;;;;20.90;102108.00;;;;2055135;28;21034;-57
2024/01/28 01:50:27;;;;;;;9.10;5.80;;;;;20.90;102110.00;;;;2064433;28;20218;-54
2024/01/28 01:51:28;;;;;;;9.17;6.30;;;;;20.90;102074.00;;;;2070600;28;20213;-56
2024/01/28 01:52:29;;;;;;;9.60;6.47;;;;;20.90;102108.00;;;;2068407;28;20206;-56
2024/01/28 01:53:29;;;;;;;11.27;6.05;;;;;20.90;102106.00;;;;2068795;28;20268;-54
2024/01/28 01:54:30;;;;;;;10.50;6.60;;;;;20.90;102104.00;;;;2059478;28;20646;-55
2024/01/28 01:55:31;;;;;;;8.40;5.57;;;;;20.90;102101.00;;;;2069602;28;20615;-56
2024/01/28 01:56:31;;;;;;;8.45;5.18;;;;;20.90;102094.00;;;;2062357;28;20227;-57
2024/01/28 01:57:32;;;;;;;10.60;6.03;;;;;20.90;102098.00;;;;2065493;28;20194;-53
2024/01/28 01:58:32;;;;;;;8.00;5.57;;;;;20.90;102099.00;;;;2064340;28;20194;-54
2024/01/28 01:59:32;;;;;;;8.30;5.23;;;;;20.90;102098.00;;;;2056386;28;20210;-57
2024/01/28 02:00:33;;;;;;;9.27;5.90;;;;;20.90;102104.00;;;;2068763;28;20289;-56
2024/01/28 02:01:34;;;;;;;7.60;5.10;;;;;20.90;102111.00;;;;2060660;28;20207;-57
2024/01/28 02:02:34;;;;;;;9.38;5.15;;;;;20.90;102105.00;;;;2064693;28;20610;-53
2024/01/28 02:03:34;;;;;;;6.20;4.77;;;;;20.90;102139.00;;;;2055792;28;20202;-55
2024/01/28 02:04:35;;;;;;;8.07;5.27;;;;;20.90;102101.00;;;;2057756;28;20589;-56
2024/01/28 02:05:36;;;;;;;7.25;4.90;;;;;20.90;102095.00;;;;2064694;28;20221;-54
2024/01/28 02:06:36;;;;;;;7.00;5.00;;;;;20.90;102096.00;;;;2069223;28;20214;-53
2024/01/28 02:07:36;;;;;;;7.87;5.57;;;;;20.90;102089.00;;;;2067842;28;20218;-54
2024/01/28 02:08:37;;;;;;;9.40;5.83;;;;;20.90;102083.00;;;;2059963;28;20198;-55
2024/01/28 02:09:37;;;;;;;8.67;5.30;;;;;20.90;102091.00;;;;2067539;28;20302;-56
2024/01/28 02:10:38;;;;;;;7.73;5.27;;;;;20.90;102087.00;;;;2069886;28;20413;-54
2024/01/28 02:11:38;;;;;;;7.57;4.60;;;;;20.80;102085.00;;;;2069467;28;20207;-55
2024/01/28 02:12:38;;;;;;;8.00;5.07;;;;;20.80;102100.00;;;;2069070;28;20225;-55
2024/01/28 02:13:39;;;;;;;8.40;5.33;;;;;20.80;102083.00;;;;2059637;28;20206;-55
2024/01/28 02:14:39;;;;;;;7.13;5.00;;;;;20.80;102085.00;;;;2066692;28;20228;-55
2024/01/28 02:15:40;;;;;;;7.60;5.40;;;;;20.90;102077.00;;;;2062620;28;20222;-55
2024/01/28 02:16:40;;;;;;;8.33;5.50;;;;;20.90;102075.00;;;;2063470;28;20469;-55
2024/01/28 02:17:40;;;;;;;7.40;4.50;;;;;20.80;102075.00;;;;2067197;28;20245;-55
2024/01/28 02:18:41;;;;;;;7.50;4.70;;;;;20.90;102074.00;;;;2058985;28;20217;-56
2024/01/28 02:19:41;;;;;;;7.07;4.50;;;;;20.90;102075.00;;;;2062307;28;20472;-55
2024/01/28 02:20:42;;;;;;;7.17;4.80;;;;;20.80;102073.00;;;;2058255;28;20225;-55
2024/01/28 02:21:42;;;;;;;7.70;4.57;;;;;20.80;102065.00;;;;2074708;28;20709;-56
2024/01/28 02:22:43;;;;;;;8.27;4.93;;;;;20.80;102066.00;;;;2070579;28;20269;-55
2024/01/28 02:23:43;;;;;;;6.70;4.60;;;;;20.80;102076.00;;;;2058879;28;20713;-55
2024/01/28 02:24:43;;;;;;;6.17;4.13;;;;;20.80;102075.00;;;;2065962;28;20211;-55
2024/01/28 02:25:44;;;;;;;7.50;4.43;;;;;20.80;102061.00;;;;2070607;28;20221;-56
2024/01/28 02:26:44;;;;;;;7.50;4.20;;;;;20.80;102064.00;;;;2072918;28;20356;-55
2024/01/28 02:27:46;;;;;;;6.70;4.90;;;;;20.80;102059.00;;;;2069889;28;20222;-55
2024/01/28 02:28:46;;;;;;;7.45;4.53;;;;;20.80;102063.00;;;;2057658;28;20229;-55
2024/01/28 02:29:47;;;;;;;6.07;3.97;;;;;20.80;102065.00;;;;2069115;28;20233;-55
2024/01/28 02:30:47;;;;;;;7.30;5.00;;;;;20.80;102064.00;;;;2065700;28;20210;-55
2024/01/28 02:31:47;;;;;;;7.50;4.00;;;;;20.80;102063.00;;;;2069622;28;20241;-55
2024/01/28 02:32:48;;;;;;;5.90;4.20;;;;;20.80;102068.00;;;;2063516;28;20207;-55
2024/01/28 02:33:49;;;;;;;5.88;4.05;;;;;20.80;102056.00;;;;2058156;28;20627;-55
2024/01/28 02:34:49;;;;;;;6.67;4.33;;;;;20.70;102056.00;;;;2066879;28;20214;-55
2024/01/28 02:35:49;;;;;;;6.57;4.30;;;;;20.70;102088.00;;;;2066252;28;20623;-55
2024/01/28 02:36:50;;;;;;;6.77;4.60;;;;;20.80;102049.00;;;;2074872;28;20674;-56
2024/01/28 02:37:50;;;;;;;6.30;4.00;;;;;20.80;102061.00;;;;2069688;28;20725;-55
2024/01/28 02:38:50;;;;;;;5.87;3.67;;;;;20.70;102055.00;;;;2059965;28;21301;-55
2024/01/28 02:39:51;;;;;;;7.00;3.80;;;;;20.70;102053.00;;;;2066875;28;20226;-55
2024/01/28 02:40:52;;;;;;;6.00;3.80;;;;;20.70;102053.00;;;;2068397;28;20284;-54
2024/01/28 02:41:52;;;;;;;6.03;3.90;;;;;20.70;102053.00;;;;2061345;28;20277;-57
2024/01/28 02:42:52;;;;;;;7.83;4.10;;;;;20.70;102054.00;;;;2068169;28;20255;-56
2024/01/28 02:43:54;;;;;;;6.33;3.70;;;;;20.70;102057.00;;;;2057631;28;20305;-57
2024/01/28 02:44:55;;;;;;;7.15;4.10;;;;;20.70;102052.00;;;;2063016;28;20707;-55
2024/01/28 02:45:55;;;;;;;6.33;3.63;;;;;20.70;102064.00;;;;2065474;28;20226;-55
2024/01/28 02:46:56;;;;;;;5.93;3.93;;;;;20.70;102056.00;;;;2061918;28;20222;-55
2024/01/28 02:47:56;;;;;;;5.33;3.50;;;;;20.70;102053.00;;;;2069396;28;20218;-56
2024/01/28 02:48:56;;;;;;;5.97;3.70;;;;;20.70;102051.00;;;;2059395;28;20228;-55
2024/01/28 02:49:57;;;;;;;7.13;4.10;;;;;20.70;102051.00;;;;2068898;28;20210;-56
2024/01/28 02:50:57;;;;;;;6.30;3.47;;;;;20.70;102054.00;;;;2076646;28;20639;-56
2024/01/28 02:51:57;;;;;;;6.23;3.73;;;;;20.70;102052.00;;;;2069019;28;20210;-55
2024/01/28 02:52:58;;;;;;;5.53;3.60;;;;;20.70;102050.00;;;;2069185;28;20229;-55
2024/01/28 02:53:58;;;;;;;6.63;4.57;;;;;20.70;102051.00;;;;2060783;28;20221;-56
2024/01/28 02:54:59;;;;;;;6.70;3.57;;;;;20.70;102048.00;;;;2058575;28;20643;-55
2024/01/28 02:56:01;;;;;;;8.90;3.80;;;;;20.60;102057.00;;;;2068397;28;20210;-55
2024/01/28 02:57:02;;;;;;;5.75;3.80;;;;;20.60;101932.00;;;;2067744;28;20332;-55
2024/01/28 02:58:02;;;;;;;5.87;3.50;;;;;20.60;102160.00;;;;2069326;28;20214;-55
2024/01/28 02:59:03;;;;;;;4.43;3.00;;;;;20.70;102052.00;;;;2054045;28;20218;-56
2024/01/28 03:00:04;;;;;;;6.30;4.00;;;;;20.70;102043.00;;;;2059940;28;20210;-56
2024/01/28 03:01:04;;;;;;;5.13;3.30;;;;;20.70;102034.00;;;;2076311;28;20583;-56
2024/01/28 03:02:04;;;;;;;6.50;3.70;;;;;20.70;102039.00;;;;2069665;28;20453;-56
2024/01/28 03:03:07;;;;;;;5.83;3.93;;;;;20.60;102030.00;;;;2061480;28;20245;-55
2024/01/28 03:04:07;;;;;;;6.72;3.47;;;;;20.60;102041.00;;;;2058740;28;20226;-55
2024/01/28 03:05:11;;;;;;;5.13;2.87;;;;;20.60;102041.00;;;;2066415;28;20286;-55
2024/01/28 03:06:11;;;;;;;4.38;2.90;;;;;20.60;102041.00;;;;2075151;28;20221;-55
2024/01/28 03:07:11;;;;;;;5.33;3.20;;;;;20.70;102067.00;;;;2063009;28;20207;-55
2024/01/28 03:08:12;;;;;;;5.40;3.43;;;;;20.60;102046.00;;;;2069131;28;20214;-55
2024/01/28 03:09:13;;;;;;;5.50;3.53;;;;;20.60;102046.00;;;;2059682;28;20222;-55
2024/01/28 03:10:13;;;;;;;7.07;3.08;;;;;20.60;102042.00;;;;2062887;28;20598;-55
2024/01/28 03:11:13;;;;;;;5.50;3.30;;;;;20.60;102041.00;;;;2068737;28;20252;-55
2024/01/28 03:12:14;;;;;;;5.40;3.67;;;;;20.60;102045.00;;;;2065950;28;20690;-56
2024/01/28 03:13:15;;;;;;;5.57;3.10;;;;;20.60;102047.00;;;;2058803;28;20297;-55
2024/01/28 03:14:15;;;;;;;4.60;3.10;;;;;20.00;102032.00;;;;2063819;28;20287;-56
2024/01/28 03:15:17;;;;;;;5.20;2.80;;;;;20.60;102030.00;;;;2066947;28;20234;-55
2024/01/28 03:16:17;;;;;;;4.75;3.05;;;;;20.60;102027.00;;;;2076200;28;20666;-55
2024/01/28 03:17:18;;;;;;;4.43;2.80;;;;;20.60;102026.00;;;;2063482;28;20214;-56
2024/01/28 03:18:18;;;;;;;5.47;3.07;;;;;20.60;102019.00;;;;2068790;28;20289;-56
2024/01/28 03:19:19;;;;;;;4.90;3.20;;;;;20.60;102018.00;;;;2057308;28;20693;-56
2024/01/28 03:20:19;;;;;;;5.47;3.40;;;;;20.60;102018.00;;;;2059657;28;20210;-56
2024/01/28 03:21:19;;;;;;;5.87;2.83;;;;;20.60;102020.00;;;;2067397;28;20689;-55
2024/01/28 03:22:20;;;;;;;5.50;3.30;;;;;20.00;102021.00;;;;2068505;28;20221;-55
2024/01/28 03:23:20;;;;;;;4.83;2.87;;;;;20.60;102021.00;;;;2069036;28;20221;-56
2024/01/28 03:24:21;;;;;;;4.20;2.73;;;;;20.60;102031.00;;;;2062820;28;20214;-56
2024/01/28 03:25:21;;;;;;;4.53;2.63;;;;;20.60;102027.00;;;;2075801;28;20220;-55
2024/01/28 03:26:22;;;;;;;6.10;3.03;;;;;20.60;102024.00;;;;2066866;28;20222;-56
2024/01/28 03:27:22;;;;;;;4.60;3.03;;;;;20.60;102026.00;;;;2062430;28;20278;-56
2024/01/28 03:28:22;;;;;;;4.60;2.67;;;;;20.60;102022.00;;;;2064401;28;21119;-56
2024/01/28 03:29:23;;;;;;;8.33;3.47;;;;;20.60;102025.00;;;;2056950;28;20297;-56
2024/01/28 03:30:23;;;;;;;4.53;2.90;;;;;20.60;102019.00;;;;2065968;28;20256;-56
2024/01/28 03:31:24;;;;;;;5.33;3.20;;;;;20.60;102011.00;;;;2070218;28;20221;-56
2024/01/28 03:32:24;;;;;;;4.47;2.80;;;;;20.50;102018.00;;;;2074148;28;20226;-55
2024/01/28 03:33:24;;;;;;;4.20;2.73;;;;;20.50;102020.00;;;;2067907;28;20248;-55
2024/01/28 03:34:24;;;;;;;4.83;2.83;;;;;20.60;102013.00;;;;2058074;28;20224;-56
2024/01/28 03:35:25;;;;;;;3.63;2.40;;;;;20.50;102018.00;;;;2067940;28;20226;-56
2024/01/28 03:36:25;;;;;;;4.73;2.60;;;;;20.60;101898.00;;;;2066119;28;20227;-56
2024/01/28 03:37:25;;;;;;;4.00;2.77;;;;;20.60;102011.00;;;;2063791;28;20579;-56
2024/01/28 03:38:26;;;;;;;5.30;2.77;;;;;20.60;102008.00;;;;2066638;28;20265;-56
2024/01/28 03:39:27;;;;;;;5.57;3.20;;;;;20.50;102014.00;;;;2059474;28;20296;-56
2024/01/28 03:40:27;;;;;;;6.25;2.60;;;;;20.50;102012.00;;;;2059927;28;20359;-56
2024/01/28 03:41:28;;;;;;;4.63;2.80;;;;;20.60;102014.00;;;;2067324;28;20217;-56
2024/01/28 03:42:28;;;;;;;4.50;2.40;;;;;20.60;102000.00;;;;2069757;28;20306;-56
2024/01/28 03:43:29;;;;;;;4.23;2.30;;;;;20.50;102011.00;;;;2067679;28;20210;-55
2024/01/28 03:44:29;;;;;;;5.73;2.70;;;;;20.50;102012.00;;;;2057477;28;20224;-56
2024/01/28 03:45:29;;;;;;;5.10;2.70;;;;;20.50;102007.00;;;;2062231;28;20207;-56
2024/01/28 03:46:30;;;;;;;5.63;2.57;;;;;20.50;102010.00;;;;2064323;28;20214;-56
2024/01/28 03:47:32;;;;;;;5.07;2.60;;;;;20.50;102009.00;;;;2067046;28;20368;-57
2024/01/28 03:48:32;;;;;;;4.03;2.00;;;;;20.50;102011.00;;;;2063842;28;20216;-55
2024/01/28 03:49:32;;;;;;;6.10;2.53;;;;;20.50;102002.00;;;;2062503;28;20221;-56
2024/01/28 03:50:33;;;;;;;5.30;2.40;;;;;20.50;102002.00;;;;2064522;28;20214;-56
2024/01/28 03:51:33;;;;;;;4.97;2.40;;;;;20.50;102003.00;;;;2068633;28;20210;-56
2024/01/28 03:52:34;;;;;;;4.27;2.60;;;;;20.50;102011.00;;;;2067926;28;20210;-56
2024/01/28 03:53:34;;;;;;;5.17;2.40;;;;;20.50;102010.00;;;;2059253;28;20214;-57
2024/01/28 03:54:35;;;;;;;4.90;2.40;;;;;20.50;102006.00;;;;2071870;28;20590;-56
2024/01/28 03:55:35;;;;;;;4.20;2.33;;;;;20.50;102004.00;;;;2075953;28;20645;-56
2024/01/28 03:56:35;;;;;;;5.60;2.97;;;;;20.50;102006.00;;;;2072068;28;20211;-55
2024/01/28 03:57:39;;;;;;;4.30;2.03;;;;;20.50;102004.00;;;;2068696;28;20307;-56
2024/01/28 03:58:39;;;;;;;3.65;2.30;;;;;20.50;102007.00;;;;2058145;28;20213;-56
2024/01/28 03:59:40;;;;;;;4.20;2.37;;;;;20.50;102010.00;;;;2068272;28;20218;-55
2024/01/28 04:00:40;;;;;;;4.40;2.20;;;;;20.50;102006.00;;;;2063500;28;20223;-56
2024/01/28 04:01:41;;;;;;;5.07;2.53;;;;;20.50;102004.00;;;;2062823;28;20578;-56
2024/01/28 04:02:41;;;;;;;3.47;1.93;;;;;20.50;102011.00;;;;2068753;28;20214;-56
2024/01/28 04:03:41;;;;;;;5.50;2.37;;;;;20.50;102012.00;;;;2059119;28;20206;-56
2024/01/28 04:04:42;;;;;;;4.50;2.37;;;;;20.50;102009.00;;;;2066792;28;20241;-56
2024/01/28 04:05:43;;;;;;;3.63;2.40;;;;;20.40;102008.00;;;;2068105;28;20209;-56
2024/01/28 04:06:43;;;;;;;5.22;2.40;;;;;20.50;102011.00;;;;2068526;28;20211;-56
2024/01/28 04:07:44;;;;;;;3.27;1.93;;;;;20.50;102008.00;;;;2067929;28;20313;-56
2024/01/28 04:08:44;;;;;;;4.53;2.30;;;;;20.50;102012.00;;;;2055053;28;20925;-55
2024/01/28 04:09:44;;;;;;;5.80;2.77;;;;;20.40;102011.00;;;;2071188;28;20209;-56
2024/01/28 04:10:45;;;;;;;3.70;1.97;;;;;20.50;102007.00;;;;2065429;28;20225;-56
2024/01/28 04:11:45;;;;;;;5.07;2.10;;;;;20.40;102007.00;;;;2062591;28;20211;-56
2024/01/28 04:12:46;;;;;;;3.90;2.60;;;;;20.40;102002.00;;;;2064929;28;20211;-55
2024/01/28 04:13:46;;;;;;;3.90;2.10;;;;;20.40;102050.00;;;;2056575;28;20222;-56
2024/01/28 04:14:47;;;;;;;2.97;1.97;;;;;20.40;102003.00;;;;2062887;28;20725;-56
2024/01/28 04:15:47;;;;;;;4.53;1.93;;;;;20.50;101998.00;;;;2068782;28;20706;-56
2024/01/28 04:16:47;;;;;;;4.03;2.63;;;;;20.40;102005.00;;;;2067975;28;20510;-55
2024/01/28 04:17:48;;;;;;;3.80;1.90;;;;;20.40;102003.00;;;;2068820;28;20195;-56
2024/01/28 04:18:49;;;;;;;4.43;2.10;;;;;20.40;101996.00;;;;2057135;28;20308;-54
2024/01/28 04:19:49;;;;;;;3.30;2.03;;;;;20.40;101998.00;;;;2066925;28;20210;-56
2024/01/28 04:20:50;;;;;;;3.53;2.23;;;;;20.40;101994.00;;;;2060282;28;20688;-56
2024/01/28 04:21:50;;;;;;;3.50;1.90;;;;;20.40;101997.00;;;;2061984;28;20214;-56
2024/01/28 04:22:50;;;;;;;3.90;1.93;;;;;20.40;101984.00;;;;2068425;28;20214;-56
2024/01/28 04:23:51;;;;;;;4.90;2.43;;;;;20.40;101983.00;;;;2058297;28;20268;-56
2024/01/28 04:24:52;;;;;;;4.50;2.17;;;;;20.40;101984.00;;;;2067264;28;20206;-56
2024/01/28 04:25:52;;;;;;;3.67;1.80;;;;;20.40;101978.00;;;;2068125;28;20465;-56
2024/01/28 04:26:53;;;;;;;3.67;2.10;;;;;20.40;101981.00;;;;2067951;28;20388;-56
2024/01/28 04:27:53;;;;;;;3.50;2.10;;;;;20.40;101978.00;;;;2068755;28;20214;-56
2024/01/28 04:28:55;;;;;;;3.83;2.10;;;;;20.40;101981.00;;;;2052416;28;20540;-56
2024/01/28 04:29:55;;;;;;;3.90;1.95;;;;;20.40;101969.00;;;;2064996;28;20225;-56
2024/01/28 04:30:56;;;;;;;2.73;1.77;;;;;20.40;101972.00;;;;2061890;28;20233;-56
2024/01/28 04:31:56;;;;;;;3.40;1.70;;;;;20.40;101968.00;;;;2067501;28;20221;-56
2024/01/28 04:32:56;;;;;;;4.67;1.67;;;;;20.40;101967.00;;;;2064818;28;20301;-56
2024/01/28 04:33:57;;;;;;;3.40;1.83;;;;;20.40;101970.00;;;;2058010;28;20225;-56
2024/01/28 04:34:58;;;;;;;3.67;2.10;;;;;20.40;101970.00;;;;2067342;28;20218;-56
2024/01/28 04:35:58;;;;;;;3.10;1.87;;;;;20.40;101964.00;;;;2066228;28;20584;-56
2024/01/28 04:36:58;;;;;;;4.00;1.73;;;;;20.40;101963.00;;;;2061946;28;20231;-56
2024/01/28 04:37:59;;;;;;;3.90;2.30;;;;;20.40;101965.00;;;;2066919;28;20221;-56
2024/01/28 04:38:59;;;;;;;3.37;1.90;;;;;20.40;101964.00;;;;2052254;28;20231;-56
2024/01/28 04:39:59;;;;;;;3.53;1.83;;;;;20.40;101966.00;;;;2060162;28;20224;-55
2024/01/28 04:41:00;;;;;;;4.90;2.07;;;;;20.40;101967.00;;;;2067712;28;20226;-56
2024/01/28 04:42:01;;;;;;;3.30;2.00;;;;;20.30;101958.00;;;;2067522;28;20214;-56
2024/01/28 04:43:01;;;;;;;4.40;1.90;;;;;20.40;101968.00;;;;2067637;28;20246;-56
2024/01/28 04:44:02;;;;;;;3.37;1.90;;;;;20.40;101959.00;;;;2051940;28;20457;-56
2024/01/28 04:45:03;;;;;;;3.30;1.80;;;;;20.40;101959.00;;;;2065320;28;20297;-56
2024/01/28 04:46:03;;;;;;;3.70;2.03;;;;;20.40;101961.00;;;;2076062;28;20925;-56
2024/01/28 04:47:03;;;;;;;4.07;2.10;;;;;20.40;101953.00;;;;2068792;28;20245;-56
2024/01/28 04:48:04;;;;;;;3.20;1.50;;;;;20.30;101946.00;;;;2068099;28;20210;-56
2024/01/28 04:49:04;;;;;;;3.30;1.80;;;;;20.40;102007.00;;;;2058480;28;20215;-55
2024/01/28 04:50:06;;;;;;;3.70;1.80;;;;;20.30;101945.00;;;;2067134;28;21129;-57
2024/01/28 04:51:06;;;;;;;3.85;2.05;;;;;20.30;101948.00;;;;2065045;28;20403;-57
2024/01/28 04:52:06;;;;;;;3.00;1.70;;;;;20.30;101952.00;;;;2062469;28;20222;-56
2024/01/28 04:53:07;;;;;;;3.70;1.77;;;;;20.40;101945.00;;;;2064240;28;20284;-57
2024/01/28 04:54:08;;;;;;;3.97;1.90;;;;;20.40;101949.00;;;;2056590;28;20220;-56
2024/01/28 04:55:09;;;;;;;4.30;2.07;;;;;20.40;101938.00;;;;2066148;28;20215;-55
2024/01/28 04:56:10;;;;;;;3.03;1.67;;;;;20.40;101940.00;;;;2067956;28;20472;-56
2024/01/28 04:57:11;;;;;;;3.30;1.73;;;;;20.40;101856.00;;;;2066903;28;20230;-56